Time;durP1;ratioP1;P1;durP2;ratioP2;P2;SDS_P1;SDS_P2;PMS_P1;PMS_P2;Temp;Humidity;BMP_temperature;BMP_pressure;BME280_temperature;BME280_humidity;BME280_pressure;Samples;Min_cycle;Max_cycle;Signal;HPM_P1;HPM_P2
2022/10/23 00:01:20;;;;;;;21.02;4.95;;;12.00;99.90;;;;;;5048518;28;20091;-63
2022/10/23 00:03:46;;;;;;;13.57;4.22;;;11.90;99.90;;;;;;5047922;28;20021;-64
2022/10/23 00:06:13;;;;;;;23.80;5.43;;;11.80;99.90;;;;;;5050503;28;20024;-64
2022/10/23 00:08:39;;;;;;;12.43;4.88;;;11.80;99.90;;;;;;5056311;28;20448;-63
2022/10/23 00:11:09;;;;;;;14.00;4.30;;;11.80;99.90;;;;;;5050341;28;20047;-64
2022/10/23 00:13:35;;;;;;;17.92;5.00;;;11.80;99.90;;;;;;5056583;28;20029;-64
2022/10/23 00:16:01;;;;;;;14.65;4.32;;;11.80;99.90;;;;;;5049238;28;20029;-64
2022/10/23 00:18:26;;;;;;;18.67;4.95;;;11.70;99.90;;;;;;5048096;28;20032;-64
2022/10/23 00:20:52;;;;;;;20.13;4.22;;;11.80;99.90;;;;;;5058934;28;20071;-63
2022/10/23 00:23:17;;;;;;;19.50;4.28;;;11.80;99.90;;;;;;5051297;28;20029;-64
2022/10/23 00:25:43;;;;;;;44.20;5.55;;;11.80;99.90;;;;;;5047305;28;20032;-63
2022/10/23 00:28:09;;;;;;;32.45;5.10;;;11.80;99.90;;;;;;5047458;28;20069;-64
2022/10/23 00:30:35;;;;;;;13.48;4.63;;;11.70;99.90;;;;;;5046770;28;20132;-64
2022/10/23 00:33:00;;;;;;;15.88;4.60;;;11.60;99.90;;;;;;5054638;28;20108;-64
2022/10/23 00:35:26;;;;;;;27.38;4.72;;;11.60;99.90;;;;;;5048349;28;20060;-63
2022/10/23 00:37:51;;;;;;;14.10;3.72;;;11.60;99.90;;;;;;5049684;28;20029;-64
2022/10/23 00:40:17;;;;;;;35.25;4.78;;;11.70;99.90;;;;;;5045303;28;20070;-64
2022/10/23 00:42:42;;;;;;;22.08;4.28;;;11.60;99.90;;;;;;5050220;28;20043;-64
2022/10/23 00:45:22;;;;;;;42.83;4.22;;;11.70;99.90;;;;;;5041984;28;20048;-64
2022/10/23 00:47:48;;;;;;;40.33;5.18;;;11.70;99.90;;;;;;5046345;28;20025;-64
2022/10/23 00:50:15;;;;;;;33.17;4.75;;;11.60;99.90;;;;;;5063196;28;20031;-63
2022/10/23 00:52:46;;;;;;;60.88;7.60;;;11.60;99.90;;;;;;5052468;28;20036;-64
2022/10/23 00:55:12;;;;;;;49.15;5.63;;;11.70;99.90;;;;;;5053349;28;20056;-63
2022/10/23 00:57:42;;;;;;;44.38;4.82;;;11.70;99.90;;;;;;5050786;28;20040;-64
2022/10/23 01:00:11;;;;;;;28.23;5.35;;;11.60;99.90;;;;;;5049905;28;20356;-64
2022/10/23 01:02:36;;;;;;;13.88;4.38;;;11.60;99.90;;;;;;5048717;28;20017;-64
2022/10/23 01:05:02;;;;;;;30.05;5.28;;;11.60;99.90;;;;;;5051471;28;20024;-63
2022/10/23 01:07:46;;;;;;;17.65;3.95;;;11.60;99.90;;;;;;5052213;28;20043;-63
2022/10/23 01:10:44;;;;;;;23.50;4.45;;;11.60;99.90;;;;;;5056085;28;20028;-63
2022/10/23 01:13:30;;;;;;;63.63;7.05;;;11.60;99.90;;;;;;5047341;28;20037;-63
2022/10/23 01:16:07;;;;;;;22.08;3.60;;;11.70;99.90;;;;;;5051829;28;20529;-64
2022/10/23 01:18:41;;;;;;;48.78;5.20;;;11.70;99.90;;;;;;5050788;28;20040;-64
2022/10/23 01:21:20;;;;;;;11.13;3.72;;;11.70;99.90;;;;;;5048526;28;20025;-64
2022/10/23 01:24:18;;;;;;;13.85;4.22;;;11.60;99.90;;;;;;5052037;28;20055;-64
2022/10/23 01:27:01;;;;;;;17.15;4.75;;;11.60;99.90;;;;;;5047048;28;20470;-63
2022/10/23 01:29:41;;;;;;;13.63;4.07;;;11.60;99.90;;;;;;5054646;28;20129;-64
2022/10/23 01:32:15;;;;;;;19.92;4.57;;;11.60;99.90;;;;;;5046231;28;20060;-63
2022/10/23 01:34:50;;;;;;;14.57;4.07;;;11.50;99.90;;;;;;5051121;28;20036;-64
2022/10/23 01:37:23;;;;;;;19.65;5.00;;;11.50;99.90;;;;;;5052819;28;20095;-64
2022/10/23 01:39:53;;;;;;;7.78;4.05;;;11.50;99.90;;;;;;5050349;28;20048;-63
2022/10/23 01:42:24;;;;;;;18.75;5.07;;;11.50;99.90;;;;;;5052588;28;20044;-64
2022/10/23 01:44:52;;;;;;;23.95;4.57;;;11.50;99.90;;;;;;5051837;28;20431;-64
2022/10/23 01:47:22;;;;;;;24.77;4.38;;;11.50;99.90;;;;;;5050469;28;20021;-64
2022/10/23 01:49:51;;;;;;;38.00;6.90;;;11.60;99.90;;;;;;5050648;28;20033;-64
2022/10/23 01:52:18;;;;;;;25.27;3.78;;;11.60;99.90;;;;;;5054053;28;20037;-64
2022/10/23 01:54:46;;;;;;;37.38;4.85;;;11.60;99.90;;;;;;5053388;28;20506;-63
2022/10/23 01:57:15;;;;;;;23.77;3.70;;;11.60;99.90;;;;;;5046462;28;20107;-64
2022/10/23 01:59:45;;;;;;;20.83;4.32;;;11.60;99.90;;;;;;5045835;28;20483;-62
2022/10/23 02:02:13;;;;;;;25.88;4.63;;;11.60;99.90;;;;;;5045578;28;20060;-63
2022/10/23 02:04:46;;;;;;;56.22;6.00;;;11.60;99.90;;;;;;5046649;28;20561;-62
2022/10/23 02:07:12;;;;;;;27.67;4.72;;;11.60;99.90;;;;;;5047160;28;20091;-63
2022/10/23 02:09:38;;;;;;;28.83;4.25;;;11.70;99.90;;;;;;5046167;28;20021;-62
2022/10/23 02:12:12;;;;;;;54.72;6.05;;;11.70;99.90;;;;;;5053086;28;20032;-62
2022/10/23 02:15:11;;;;;;;33.80;4.40;;;11.80;99.90;;;;;;5046186;28;20465;-62
2022/10/23 02:17:42;;;;;;;17.98;4.30;;;11.80;99.90;;;;;;5046750;28;20027;-63
2022/10/23 02:20:27;;;;;;;12.98;3.92;;;11.80;99.90;;;;;;5047971;28;20017;-62
2022/10/23 02:22:56;;;;;;;9.82;3.00;;;11.90;99.90;;;;;;5044774;28;20033;-64
2022/10/23 02:25:36;;;;;;;12.98;3.75;;;11.90;99.90;;;;;;5048392;28;20466;-64
2022/10/23 02:28:06;;;;;;;27.15;4.07;;;11.90;99.90;;;;;;5052171;28;20383;-63
2022/10/23 02:30:36;;;;;;;16.80;4.40;;;12.00;99.90;;;;;;5056621;22;20419;-56
2022/10/23 02:33:03;;;;;;;21.02;4.25;;;12.00;99.90;;;;;;5027560;28;20321;-61
2022/10/23 02:35:29;;;;;;;11.45;3.67;;;12.10;99.90;;;;;;5026060;28;20388;-61
2022/10/23 02:37:58;;;;;;;15.95;4.10;;;12.10;99.90;;;;;;5025216;28;20044;-60
2022/10/23 02:40:44;;;;;;;16.17;4.15;;;12.10;99.90;;;;;;5018884;28;20038;-61
2022/10/23 02:43:22;;;;;;;25.20;3.85;;;12.20;99.90;;;;;;5013308;28;20022;-61
2022/10/23 02:46:18;;;;;;;12.70;3.95;;;12.20;99.90;;;;;;5009441;28;20034;-61
2022/10/23 02:48:50;;;;;;;14.90;3.80;;;12.20;99.90;;;;;;4991719;28;20393;-59
2022/10/23 02:51:24;;;;;;;22.80;4.10;;;12.30;99.90;;;;;;5008761;28;20026;-61
2022/10/23 02:54:10;;;;;;;29.63;4.00;;;12.30;99.90;;;;;;5003270;28;20514;-62
2022/10/23 02:56:50;;;;;;;20.08;4.30;;;12.30;99.90;;;;;;5004661;28;20048;-60
2022/10/23 02:59:23;;;;;;;17.15;4.18;;;12.30;99.90;;;;;;5014130;28;20022;-60
2022/10/23 03:02:01;;;;;;;16.63;3.88;;;12.40;99.90;;;;;;5011625;28;20049;-59
2022/10/23 03:04:28;;;;;;;20.33;4.13;;;12.40;99.90;;;;;;5014635;28;20080;-60
2022/10/23 03:06:54;;;;;;;13.15;3.50;;;12.50;99.90;;;;;;5005879;28;20065;-60
2022/10/23 03:09:20;;;;;;;21.50;4.40;;;12.50;99.90;;;;;;5013453;28;20040;-60
2022/10/23 03:11:45;;;;;;;20.55;4.18;;;12.50;99.90;;;;;;5001299;28;20038;-61
2022/10/23 03:14:12;;;;;;;11.52;3.65;;;12.50;99.90;;;;;;5005445;28;20048;-60
2022/10/23 03:16:38;;;;;;;16.38;4.15;;;12.50;99.90;;;;;;5005395;28;20025;-61
2022/10/23 03:19:03;;;;;;;6.75;3.28;;;12.60;99.90;;;;;;5006898;28;20030;-61
2022/10/23 03:21:29;;;;;;;15.52;3.75;;;12.60;99.90;;;;;;5005857;28;20984;-61
2022/10/23 03:23:54;;;;;;;15.77;4.00;;;12.60;99.90;;;;;;5008337;28;20022;-61
2022/10/23 03:26:20;;;;;;;24.65;4.40;;;12.60;99.90;;;;;;5013841;28;20029;-60
2022/10/23 03:28:45;;;;;;;7.82;3.65;;;12.60;99.90;;;;;;5006104;28;20033;-62
2022/10/23 03:31:11;;;;;;;31.42;3.97;;;12.60;99.90;;;;;;5006393;28;20026;-61
2022/10/23 03:33:37;;;;;;;15.40;3.60;;;12.60;99.90;;;;;;5002798;28;20023;-59
2022/10/23 03:36:02;;;;;;;39.10;4.18;;;12.60;99.90;;;;;;5007487;28;20080;-59
2022/10/23 03:38:28;;;;;;;11.60;3.45;;;12.60;99.90;;;;;;5009223;28;20429;-61
2022/10/23 03:40:53;;;;;;;30.65;3.67;;;12.60;99.90;;;;;;5016000;28;20026;-61
2022/10/23 03:43:19;;;;;;;8.00;3.05;;;12.60;99.90;;;;;;5012928;28;20068;-62
2022/10/23 03:45:45;;;;;;;22.17;3.55;;;12.60;99.90;;;;;;5009530;28;20026;-61
2022/10/23 03:48:10;;;;;;;60.05;4.85;;;12.60;99.90;;;;;;5007943;28;20065;-62
2022/10/23 03:50:36;;;;;;;23.48;3.75;;;12.60;99.90;;;;;;5006290;28;20109;-61
2022/10/23 03:53:01;;;;;;;33.03;3.97;;;12.60;99.90;;;;;;4991171;28;20037;-61
2022/10/23 03:55:27;;;;;;;37.03;3.83;;;12.60;99.90;;;;;;5013592;28;20029;-61
2022/10/23 03:57:53;;;;;;;14.88;3.45;;;12.60;99.90;;;;;;4993792;28;20117;-59
2022/10/23 04:00:19;;;;;;;13.60;3.15;;;12.60;99.90;;;;;;5012397;28;20049;-61
2022/10/23 04:02:45;;;;;;;28.40;4.25;;;12.60;99.90;;;;;;5005578;28;20034;-61
2022/10/23 04:05:11;;;;;;;17.85;2.90;;;12.60;99.90;;;;;;5007030;28;20045;-61
2022/10/23 04:07:36;;;;;;;13.95;3.35;;;12.60;99.90;;;;;;5010028;28;20030;-61
2022/10/23 04:10:03;;;;;;;16.50;3.65;;;12.60;99.90;;;;;;5017487;28;20037;-61
2022/10/23 04:12:29;;;;;;;25.10;4.25;;;12.60;99.90;;;;;;5008995;28;20657;-59
2022/10/23 04:14:54;;;;;;;20.15;3.63;;;12.70;99.90;;;;;;5006403;28;20040;-59
2022/10/23 04:17:20;;;;;;;33.83;5.03;;;12.70;99.90;;;;;;5006288;28;20028;-58
2022/10/23 04:19:45;;;;;;;15.48;3.50;;;12.80;99.90;;;;;;5004217;28;20042;-60
2022/10/23 04:22:11;;;;;;;8.43;2.72;;;12.80;99.90;;;;;;5011184;28;20026;-61
2022/10/23 04:24:36;;;;;;;31.90;3.42;;;12.80;99.90;;;;;;5013443;28;20396;-60
2022/10/23 04:27:02;;;;;;;8.90;2.88;;;12.80;99.90;;;;;;5012053;28;20022;-61
2022/10/23 04:29:30;;;;;;;21.58;3.10;;;12.80;99.90;;;;;;5010844;28;20033;-59
2022/10/23 04:31:56;;;;;;;10.90;3.70;;;12.80;99.90;;;;;;5012875;28;20032;-59
2022/10/23 04:34:21;;;;;;;10.07;3.17;;;12.80;99.90;;;;;;5012182;28;20029;-59
2022/10/23 04:36:47;;;;;;;33.40;4.15;;;12.80;99.90;;;;;;5009506;28;20495;-61
2022/10/23 04:39:13;;;;;;;13.85;3.75;;;12.80;99.90;;;;;;5010998;28;20103;-60
2022/10/23 04:41:39;;;;;;;10.52;2.90;;;12.80;99.90;;;;;;5011757;28;21048;-61
2022/10/23 04:44:05;;;;;;;15.00;2.70;;;12.80;99.90;;;;;;5019900;28;20049;-60
2022/10/23 04:46:30;;;;;;;21.85;5.10;;;12.80;99.90;;;;;;5009521;28;20045;-60
2022/10/23 04:48:56;;;;;;;21.20;2.90;;;12.80;99.90;;;;;;5008859;28;20042;-61
2022/10/23 04:51:21;;;;;;;49.10;8.52;;;12.80;99.90;;;;;;5012061;28;20034;-60
2022/10/23 04:53:47;;;;;;;11.45;2.80;;;12.80;99.90;;;;;;5011102;28;20057;-60
2022/10/23 04:56:14;;;;;;;8.32;2.88;;;12.70;99.90;;;;;;5006237;28;20025;-61
2022/10/23 04:58:40;;;;;;;8.15;2.75;;;12.70;99.90;;;;;;5004401;28;20034;-61
2022/10/23 05:01:09;;;;;;;8.73;2.58;;;12.70;99.90;;;;;;5016100;28;20037;-59
2022/10/23 05:03:35;;;;;;;22.10;3.03;;;12.70;99.90;;;;;;4990735;28;20057;-60
2022/10/23 05:06:00;;;;;;;33.33;3.78;;;12.70;99.90;;;;;;5011160;28;20054;-59
2022/10/23 05:08:26;;;;;;;21.90;2.97;;;12.70;99.90;;;;;;5010300;28;20488;-60
2022/10/23 05:10:51;;;;;;;7.20;2.47;;;12.60;99.90;;;;;;4995310;28;20036;-58
2022/10/23 05:13:18;;;;;;;26.45;3.45;;;12.70;99.90;;;;;;5011764;28;20484;-60
2022/10/23 05:15:48;;;;;;;8.90;2.75;;;12.70;99.90;;;;;;5011769;28;20022;-60
2022/10/23 05:18:28;;;;;;;15.38;3.50;;;12.60;99.90;;;;;;5012329;28;20033;-59
2022/10/23 05:20:58;;;;;;;12.55;2.83;;;12.60;99.90;;;;;;5010783;28;20467;-60
2022/10/23 05:23:25;;;;;;;13.25;2.83;;;12.60;99.90;;;;;;5014740;28;20052;-60
2022/10/23 05:25:50;;;;;;;6.18;2.53;;;12.60;99.90;;;;;;5010324;28;20030;-61
2022/10/23 05:28:16;;;;;;;10.60;3.22;;;12.60;99.90;;;;;;5010800;28;20038;-60
2022/10/23 05:30:42;;;;;;;34.35;3.78;;;12.60;99.90;;;;;;5009926;28;20041;-60
2022/10/23 05:33:08;;;;;;;21.65;3.75;;;12.60;99.90;;;;;;5010109;28;20025;-59
2022/10/23 05:35:36;;;;;;;14.23;3.22;;;12.60;99.90;;;;;;5014083;28;20040;-59
2022/10/23 05:38:02;;;;;;;10.65;2.78;;;12.50;99.90;;;;;;5008943;28;20535;-59
2022/10/23 05:40:28;;;;;;;19.48;3.00;;;12.50;99.90;;;;;;5004043;28;20030;-60
2022/10/23 05:42:54;;;;;;;8.18;2.53;;;12.50;99.90;;;;;;5002303;28;20022;-61
2022/10/23 05:45:19;;;;;;;13.68;3.53;;;12.50;99.90;;;;;;5002778;28;20092;-59
2022/10/23 05:47:45;;;;;;;21.80;2.75;;;12.50;99.90;;;;;;5004535;28;20026;-60
2022/10/23 05:50:11;;;;;;;11.23;2.88;;;12.50;99.90;;;;;;5009968;28;20033;-59
2022/10/23 05:52:36;;;;;;;15.45;2.80;;;12.50;99.90;;;;;;5006167;28;20025;-61
2022/10/23 05:55:02;;;;;;;26.52;3.28;;;12.50;99.90;;;;;;5003458;28;20038;-61
2022/10/23 05:57:31;;;;;;;25.70;4.00;;;12.50;99.90;;;;;;5002600;28;20455;-60
2022/10/23 05:59:57;;;;;;;14.80;3.03;;;12.50;99.90;;;;;;5004240;28;20479;-60
2022/10/23 06:02:22;;;;;;;16.58;2.88;;;12.50;99.90;;;;;;5007529;28;20049;-60
2022/10/23 06:04:48;;;;;;;18.50;2.53;;;12.40;99.90;;;;;;5009762;28;20033;-59
2022/10/23 06:07:13;;;;;;;15.48;2.58;;;12.40;99.90;;;;;;5003997;28;20034;-62
2022/10/23 06:09:39;;;;;;;10.43;2.88;;;12.50;99.90;;;;;;5003279;28;20110;-62
2022/10/23 06:12:04;;;;;;;8.40;2.72;;;12.40;99.90;;;;;;5005419;28;20033;-61
2022/10/23 06:14:30;;;;;;;47.35;3.28;;;12.40;99.90;;;;;;5005075;28;20818;-61
2022/10/23 06:16:56;;;;;;;11.88;2.65;;;12.40;99.90;;;;;;5004487;28;20061;-61
2022/10/23 06:19:21;;;;;;;12.63;3.00;;;12.40;99.90;;;;;;4990118;28;20029;-62
2022/10/23 06:21:47;;;;;;;41.38;4.53;;;12.40;99.90;;;;;;5001440;28;20069;-60
2022/10/23 06:24:12;;;;;;;43.67;5.72;;;12.40;99.90;;;;;;5009947;28;20037;-60
2022/10/23 06:26:37;;;;;;;14.93;3.65;;;12.40;99.90;;;;;;5005335;28;20076;-62
2022/10/23 06:29:03;;;;;;;16.20;2.63;;;12.30;99.90;;;;;;5002232;28;20037;-60
2022/10/23 06:31:29;;;;;;;8.07;2.65;;;12.40;99.90;;;;;;5001819;28;20054;-62
2022/10/23 06:33:55;;;;;;;43.78;3.90;;;12.40;99.90;;;;;;5001309;28;20045;-61
2022/10/23 06:36:21;;;;;;;29.38;3.45;;;12.40;99.90;;;;;;5007787;28;20038;-59
2022/10/23 06:38:48;;;;;;;7.57;3.15;;;12.50;99.90;;;;;;5013709;28;20045;-61
2022/10/23 06:41:18;;;;;;;25.92;4.18;;;12.60;99.90;;;;;;5008174;28;20026;-62
2022/10/23 06:43:46;;;;;;;10.13;3.17;;;12.60;99.90;;;;;;5016214;28;20030;-60
2022/10/23 06:46:11;;;;;;;23.88;3.28;;;12.70;99.90;;;;;;5014871;28;20480;-60
2022/10/23 06:48:37;;;;;;;11.23;2.78;;;12.70;99.90;;;;;;5012050;28;20030;-61
2022/10/23 06:51:08;;;;;;;13.32;2.75;;;12.80;99.90;;;;;;5010468;28;20088;-61
2022/10/23 06:53:34;;;;;;;27.80;3.33;;;12.90;99.90;;;;;;5008179;28;20018;-60
2022/10/23 06:56:01;;;;;;;18.50;3.35;;;12.90;99.90;;;;;;5012059;28;20408;-57
2022/10/23 06:58:27;;;;;;;21.50;2.88;;;12.90;99.90;;;;;;5005727;28;20026;-59
2022/10/23 07:00:53;;;;;;;20.55;2.78;;;12.90;99.90;;;;;;5005910;28;20029;-60
2022/10/23 07:03:18;;;;;;;8.18;2.63;;;13.00;99.90;;;;;;5010071;28;20427;-61
2022/10/23 07:05:46;;;;;;;29.08;3.65;;;13.00;99.90;;;;;;5009077;28;20058;-63
2022/10/23 07:08:12;;;;;;;16.27;3.10;;;13.00;99.90;;;;;;5008808;28;20037;-61
2022/10/23 07:10:41;;;;;;;12.75;2.92;;;13.10;99.90;;;;;;5007286;28;20530;-59
2022/10/23 07:13:08;;;;;;;19.77;2.67;;;13.10;99.90;;;;;;5007456;28;20026;-62
2022/10/23 07:15:33;;;;;;;6.28;2.60;;;13.10;99.90;;;;;;5012780;28;20038;-57
2022/10/23 07:17:59;;;;;;;17.15;3.22;;;13.10;99.90;;;;;;5013229;28;20549;-59
2022/10/23 07:20:25;;;;;;;14.93;3.17;;;13.20;99.90;;;;;;4990277;28;20068;-58
2022/10/23 07:22:53;;;;;;;16.98;3.17;;;13.30;99.90;;;;;;5007733;28;20034;-61
2022/10/23 07:25:19;;;;;;;7.93;3.33;;;13.30;99.90;;;;;;5010830;28;20030;-61
2022/10/23 07:27:44;;;;;;;15.82;2.92;;;13.30;99.90;;;;;;5008387;28;20034;-60
2022/10/23 07:30:10;;;;;;;9.55;2.88;;;13.30;99.90;;;;;;5006923;28;20030;-61
2022/10/23 07:32:36;;;;;;;11.52;2.60;;;13.30;99.90;;;;;;5010396;28;20100;-60
2022/10/23 07:35:02;;;;;;;15.05;3.05;;;13.30;99.90;;;;;;5006631;28;20123;-61
2022/10/23 07:37:29;;;;;;;13.70;3.13;;;13.40;99.90;;;;;;5007470;28;20045;-61
2022/10/23 07:39:54;;;;;;;11.65;2.75;;;13.40;99.90;;;;;;5001824;28;20026;-59
2022/10/23 07:42:20;;;;;;;7.43;2.83;;;13.50;99.90;;;;;;5008355;28;20491;-61
2022/10/23 07:44:45;;;;;;;9.75;2.92;;;13.50;99.90;;;;;;4989984;28;20053;-61
2022/10/23 07:47:11;;;;;;;22.60;3.50;;;13.60;99.90;;;;;;5006771;28;20079;-62
2022/10/23 07:49:36;;;;;;;16.33;2.80;;;13.60;99.90;;;;;;5008557;28;20067;-59
2022/10/23 07:52:04;;;;;;;23.60;3.35;;;13.70;99.90;;;;;;5009713;28;20030;-61
2022/10/23 07:54:29;;;;;;;13.63;2.80;;;13.70;99.90;;;;;;5006014;28;20583;-60
2022/10/23 07:56:55;;;;;;;7.30;2.40;;;13.60;99.90;;;;;;5009661;28;20034;-60
2022/10/23 07:59:21;;;;;;;14.88;2.72;;;13.60;99.90;;;;;;5008123;28;20029;-61
2022/10/23 08:01:47;;;;;;;9.90;3.78;;;13.60;99.90;;;;;;5008889;28;20118;-60
2022/10/23 08:04:13;;;;;;;18.48;3.20;;;13.70;99.90;;;;;;5009302;28;20041;-59
2022/10/23 08:06:38;;;;;;;7.00;2.33;;;13.70;99.90;;;;;;5005387;28;20054;-62
2022/10/23 08:09:04;;;;;;;10.80;2.58;;;13.70;99.90;;;;;;5011303;28;20026;-61
2022/10/23 08:11:34;;;;;;;10.32;2.20;;;13.80;99.90;;;;;;4990813;28;20038;-61
2022/10/23 08:14:03;;;;;;;9.57;2.75;;;13.90;99.90;;;;;;5005267;28;20017;-61
2022/10/23 08:16:34;;;;;;;12.13;2.88;;;13.90;99.90;;;;;;5001172;28;20030;-61
2022/10/23 08:19:00;;;;;;;9.88;2.80;;;14.00;99.90;;;;;;5004323;28;20022;-62
2022/10/23 08:21:26;;;;;;;19.45;2.58;;;14.10;99.90;;;;;;5008501;28;20065;-61
2022/10/23 08:23:53;;;;;;;7.68;2.80;;;14.10;99.90;;;;;;5006368;28;20034;-61
2022/10/23 08:26:19;;;;;;;8.98;2.42;;;14.20;99.90;;;;;;5008049;28;20026;-61
2022/10/23 08:28:44;;;;;;;2.72;1.75;;;14.20;99.90;;;;;;4988586;28;20491;-60
2022/10/23 08:31:13;;;;;;;6.55;2.25;;;14.20;99.90;;;;;;5026138;22;20102;-64
2022/10/23 08:33:39;;;;;;;21.27;3.00;;;14.30;99.90;;;;;;5045807;28;20029;-63
2022/10/23 08:36:17;;;;;;;12.57;2.65;;;14.40;99.90;;;;;;5045202;28;20017;-63
2022/10/23 08:38:42;;;;;;;8.52;2.03;;;14.50;99.90;;;;;;5043381;28;20582;-64
2022/10/23 08:41:21;;;;;;;16.20;2.58;;;14.50;99.90;;;;;;5044207;28;20104;-64
2022/10/23 08:43:51;;;;;;;14.02;2.40;;;14.60;99.90;;;;;;5048943;28;20021;-62
2022/10/23 08:46:22;;;;;;;12.48;2.03;;;14.60;99.90;;;;;;5040754;28;20033;-63
2022/10/23 08:48:53;;;;;;;10.18;2.70;;;14.60;99.90;;;;;;5047649;28;20071;-63
2022/10/23 08:51:28;;;;;;;6.43;2.10;;;14.80;99.90;;;;;;5047556;28;20414;-63
2022/10/23 08:54:04;;;;;;;7.57;1.98;;;14.90;99.90;;;;;;5042845;28;20028;-64
2022/10/23 08:56:33;;;;;;;46.03;3.25;;;15.00;99.90;;;;;;5042258;28;20066;-62
2022/10/23 08:59:08;;;;;;;8.43;2.30;;;15.10;99.90;;;;;;5047899;28;20036;-65
2022/10/23 09:01:45;;;;;;;9.43;1.70;;;15.20;99.90;;;;;;5046138;28;20032;-64
2022/10/23 09:04:12;;;;;;;5.82;1.80;;;15.30;99.90;;;;;;5047543;28;20025;-63
2022/10/23 09:07:15;;;;;;;4.50;1.92;;;15.30;99.90;;;;;;5047858;28;20483;-64
2022/10/23 09:10:13;;;;;;;12.05;1.80;;;15.40;99.90;;;;;;5047554;28;20029;-63
2022/10/23 09:12:40;;;;;;;8.90;1.95;;;15.50;99.90;;;;;;5050078;28;20036;-64
2022/10/23 09:15:33;;;;;;;9.80;1.70;;;15.60;99.90;;;;;;5050329;28;20167;-63
2022/10/23 09:18:12;;;;;;;8.93;1.50;;;15.70;99.90;;;;;;5049119;28;20025;-60
2022/10/23 09:20:42;;;;;;;3.70;1.50;;;15.80;99.90;;;;;;5042228;28;20029;-63
2022/10/23 09:23:21;;;;;;;5.07;1.80;;;15.90;99.90;;;;;;5051080;28;20028;-63
2022/10/23 09:25:50;;;;;;;16.23;1.80;;;16.00;99.90;;;;;;5047559;28;20163;-62
2022/10/23 09:28:22;;;;;;;6.10;1.90;;;16.00;99.90;;;;;;5046698;28;20037;-63
2022/10/23 09:30:48;;;;;;;8.27;1.80;;;16.10;99.90;;;;;;5045805;28;20029;-63
2022/10/23 09:33:21;;;;;;;12.68;1.98;;;16.00;99.90;;;;;;5051859;28;20040;-64
2022/10/23 09:35:57;;;;;;;18.58;2.38;;;16.10;99.90;;;;;;5051301;28;20486;-62
2022/10/23 09:38:52;;;;;;;10.73;1.90;;;16.20;99.90;;;;;;5047177;28;20032;-63
2022/10/23 09:41:33;;;;;;;;;;;16.30;99.90;;;;;;5053477;28;20018;-64
2022/10/23 09:44:06;;;;;;;5.07;1.95;;;16.40;99.90;;;;;;5050398;28;19909;-65
2022/10/23 09:46:43;;;;;;;4.53;1.20;;;16.50;99.90;;;;;;5052579;28;20273;-63
2022/10/23 09:49:28;;;;;;;4.97;1.50;;;16.60;99.90;;;;;;5048603;28;20491;-63
2022/10/23 09:52:09;;;;;;;8.63;1.88;;;16.60;99.90;;;;;;5043504;28;20432;-65
2022/10/23 09:54:47;;;;;;;2.67;1.30;;;16.60;99.90;;;;;;5045552;28;20070;-65
2022/10/23 09:57:31;;;;;;;11.48;1.98;;;16.60;99.90;;;;;;5043909;28;20035;-65
2022/10/23 10:00:00;;;;;;;6.47;1.60;;;16.70;99.90;;;;;;5045267;28;20859;-65
2022/10/23 10:02:28;;;;;;;11.32;2.20;;;16.70;99.90;;;;;;5043128;28;20033;-65
2022/10/23 10:04:54;;;;;;;5.72;1.75;;;16.80;99.90;;;;;;5047981;28;20147;-66
2022/10/23 10:07:23;;;;;;;19.02;2.00;;;16.90;99.90;;;;;;5043891;28;20631;-66
2022/10/23 10:09:49;;;;;;;7.45;2.25;;;16.90;99.90;;;;;;5040214;28;20390;-65
2022/10/23 10:12:40;;;;;;;4.78;1.25;;;17.00;99.90;;;;;;5047633;28;20660;-64
2022/10/23 10:15:37;;;;;;;19.58;1.80;;;17.10;99.90;;;;;;5046394;28;20096;-67
2022/10/23 10:18:20;;;;;;;7.03;1.30;;;17.10;99.90;;;;;;5046833;28;20124;-65
2022/10/23 10:20:58;;;;;;;3.67;1.52;;;17.10;99.90;;;;;;5046899;28;20032;-64
2022/10/23 10:23:45;;;;;;;7.43;1.13;;;17.20;99.90;;;;;;5045793;28;20029;-66
2022/10/23 10:26:26;;;;;;;9.73;1.20;;;17.20;99.90;;;;;;5043276;28;20025;-65
2022/10/23 10:28:54;;;;;;;6.45;1.63;;;17.30;99.90;;;;;;5045276;28;20047;-65
2022/10/23 10:31:22;;;;;;;12.02;1.40;;;17.30;99.90;;;;;;5043411;28;20521;-66
2022/10/23 10:34:21;;;;;;;15.45;1.20;;;17.30;99.90;;;;;;5043610;28;20029;-63
2022/10/23 10:36:54;;;;;;;7.80;1.42;;;17.20;99.90;;;;;;5045724;28;20068;-66
2022/10/23 10:39:51;;;;;;;5.72;1.25;;;17.20;99.90;;;;;;5050144;28;20036;-65
2022/10/23 10:42:34;;;;;;;7.70;1.40;;;17.10;99.90;;;;;;5028936;28;20033;-66
2022/10/23 10:45:18;;;;;;;6.40;1.45;;;17.10;99.90;;;;;;5047582;28;20495;-66
2022/10/23 10:48:02;;;;;;;5.22;1.30;;;17.10;99.90;;;;;;5046237;28;20033;-65
2022/10/23 10:50:42;;;;;;;2.53;1.20;;;17.10;99.90;;;;;;5039657;28;20031;-65
2022/10/23 10:53:41;;;;;;;2.83;1.42;;;17.10;99.90;;;;;;5046087;28;20041;-66
2022/10/23 10:56:13;;;;;;;2.35;1.40;;;17.10;99.90;;;;;;5047656;28;20173;-65
2022/10/23 10:58:52;;;;;;;6.60;1.25;;;17.10;99.90;;;;;;5046421;28;20108;-65
2022/10/23 11:01:55;;;;;;;2.78;1.60;;;17.10;99.90;;;;;;5044209;28;20025;-65
2022/10/23 11:04:47;;;;;;;6.65;1.75;;;17.20;99.90;;;;;;5045706;28;20027;-65
2022/10/23 11:07:19;;;;;;;14.18;1.30;;;17.30;99.90;;;;;;5044666;28;20024;-65
2022/10/23 11:09:45;;;;;;;7.90;1.08;;;17.30;99.90;;;;;;5045622;28;20086;-65
2022/10/23 11:12:20;;;;;;;10.32;1.33;;;17.30;99.90;;;;;;5044939;28;20611;-66
2022/10/23 11:14:46;;;;;;;4.70;1.38;;;17.30;99.90;;;;;;5048519;28;20036;-66
2022/10/23 11:17:36;;;;;;;2.05;1.17;;;17.30;99.90;;;;;;5046151;28;20104;-64
2022/10/23 11:20:14;;;;;;;10.10;1.27;;;17.20;99.90;;;;;;5045304;28;20029;-65
2022/10/23 11:22:57;;;;;;;3.83;1.55;;;17.20;99.90;;;;;;5046066;28;20454;-67
2022/10/23 11:25:43;;;;;;;17.60;2.25;;;17.20;99.90;;;;;;5044570;28;20025;-65
2022/10/23 11:28:18;;;;;;;23.98;3.60;;;17.10;99.90;;;;;;5046372;28;20059;-65
2022/10/23 11:30:57;;;;;;;;;;;17.00;99.90;;;;;;5043386;28;20632;-65
2022/10/23 11:33:50;;;;;;;5.90;1.83;;;17.00;99.90;;;;;;5046815;28;19920;-64
2022/10/23 11:36:41;;;;;;;27.10;3.05;;;17.00;99.90;;;;;;5043981;28;20025;-66
2022/10/23 11:39:15;;;;;;;9.60;2.78;;;17.10;99.90;;;;;;5043318;28;20029;-65
2022/10/23 11:41:49;;;;;;;14.05;1.80;;;17.00;99.90;;;;;;5043617;28;20344;-65
2022/10/23 11:44:38;;;;;;;5.90;2.15;;;17.10;99.90;;;;;;5046437;28;20398;-66
2022/10/23 11:47:31;;;;;;;27.27;2.97;;;17.30;99.90;;;;;;5039398;28;20128;-65
2022/10/23 11:50:06;;;;;;;7.50;1.45;;;17.50;99.90;;;;;;5043048;28;20021;-65
2022/10/23 11:52:34;;;;;;;6.72;1.35;;;17.70;99.90;;;;;;5042337;28;20549;-62
2022/10/23 11:55:01;;;;;;;15.00;1.48;;;17.70;99.90;;;;;;5045192;28;20564;-65
2022/10/23 11:57:26;;;;;;;3.85;1.45;;;17.90;99.90;;;;;;5043156;28;20037;-65
2022/10/23 11:59:54;;;;;;;8.93;1.95;;;18.10;99.90;;;;;;5042417;28;20168;-65
2022/10/23 12:02:35;;;;;;;7.88;1.70;;;18.30;99.90;;;;;;5046225;28;20112;-66
2022/10/23 12:05:08;;;;;;;8.57;1.55;;;18.40;99.90;;;;;;5044569;28;20025;-68
2022/10/23 12:07:40;;;;;;;9.38;1.50;;;18.50;99.90;;;;;;5044201;28;20025;-65
2022/10/23 12:10:33;;;;;;;5.15;1.33;;;18.50;99.90;;;;;;5047448;28;20501;-65
2022/10/23 12:13:02;;;;;;;15.10;1.60;;;18.50;99.90;;;;;;5040043;28;20029;-66
2022/10/23 12:15:28;;;;;;;7.32;1.13;;;18.50;99.90;;;;;;5044003;28;20450;-66
2022/10/23 12:18:13;;;;;;;6.45;1.88;;;18.50;99.90;;;;;;5044527;28;20025;-65
2022/10/23 12:21:00;;;;;;;5.10;1.30;;;18.60;99.90;;;;;;5051095;28;20029;-66
2022/10/23 12:23:25;;;;;;;4.07;1.42;;;18.70;99.90;;;;;;5044357;28;20033;-65
2022/10/23 12:25:56;;;;;;;5.60;1.95;;;18.60;99.90;;;;;;5047164;28;20031;-67
2022/10/23 12:28:32;;;;;;;19.20;1.90;;;18.60;99.90;;;;;;5046412;28;20044;-66
2022/10/23 12:31:24;;;;;;;16.00;3.08;;;18.60;99.90;;;;;;5047340;28;20025;-66
2022/10/23 12:34:23;;;;;;;4.38;1.20;;;18.60;99.90;;;;;;5044485;28;20029;-65
2022/10/23 12:37:10;;;;;;;4.90;1.67;;;18.50;99.90;;;;;;5041830;28;20041;-65
2022/10/23 12:39:37;;;;;;;11.50;1.50;;;18.60;99.90;;;;;;5043499;28;20588;-65
2022/10/23 12:42:14;;;;;;;6.53;1.50;;;18.60;99.90;;;;;;5046951;28;20061;-64
2022/10/23 12:44:40;;;;;;;4.47;1.60;;;18.50;99.90;;;;;;5043814;28;20035;-66
2022/10/23 12:47:11;;;;;;;5.43;1.50;;;18.40;99.90;;;;;;5050135;28;20029;-64
2022/10/23 12:49:36;;;;;;;7.20;2.08;;;18.30;99.90;;;;;;5050724;28;20509;-66
2022/10/23 12:52:17;;;;;;;7.30;1.63;;;18.20;99.90;;;;;;5048796;28;20040;-63
2022/10/23 12:54:42;;;;;;;11.45;2.83;;;18.30;99.90;;;;;;5047852;28;20557;-67
2022/10/23 12:57:40;;;;;;;8.10;1.52;;;18.30;99.90;;;;;;5046948;28;20098;-64
2022/10/23 13:00:16;;;;;;;8.98;1.63;;;18.20;99.90;;;;;;5050105;28;20474;-62
2022/10/23 13:02:42;;;;;;;12.23;2.20;;;18.10;99.90;;;;;;5048498;28;20039;-66